sensor_id;sensor_type;location;lat;lon;timestamp;P1;durP1;ratioP1;P2;durP2;ratioP2
48813;SDS011;34634;44.108;3.074;2023-05-16T00:00:58;9.15;;;5.53;;
48813;SDS011;34634;44.108;3.074;2023-05-16T00:03:25;7.05;;;5.88;;
48813;SDS011;34634;44.108;3.074;2023-05-16T00:05:52;7.32;;;5.28;;
48813;SDS011;34634;44.108;3.074;2023-05-16T00:08:18;9.23;;;5.45;;
48813;SDS011;34634;44.108;3.074;2023-05-16T00:10:45;11.93;;;5.38;;
48813;SDS011;34634;44.108;3.074;2023-05-16T00:13:11;7.70;;;5.25;;
48813;SDS011;34634;44.108;3.074;2023-05-16T00:15:37;12.05;;;6.32;;
48813;SDS011;34634;44.108;3.074;2023-05-16T00:18:04;8.93;;;5.97;;
48813;SDS011;34634;44.108;3.074;2023-05-16T00:20:30;8.35;;;5.57;;
48813;SDS011;34634;44.108;3.074;2023-05-16T00:22:57;7.15;;;5.70;;
48813;SDS011;34634;44.108;3.074;2023-05-16T00:25:25;7.47;;;5.13;;
48813;SDS011;34634;44.108;3.074;2023-05-16T00:27:52;7.60;;;5.55;;
48813;SDS011;34634;44.108;3.074;2023-05-16T00:30:19;8.30;;;5.32;;
48813;SDS011;34634;44.108;3.074;2023-05-16T00:32:45;8.93;;;5.45;;
48813;SDS011;34634;44.108;3.074;2023-05-16T00:35:11;7.15;;;5.63;;
48813;SDS011;34634;44.108;3.074;2023-05-16T00:37:38;6.57;;;5.68;;
48813;SDS011;34634;44.108;3.074;2023-05-16T00:40:04;6.57;;;5.85;;
48813;SDS011;34634;44.108;3.074;2023-05-16T00:42:31;9.95;;;5.68;;
48813;SDS011;34634;44.108;3.074;2023-05-16T00:44:57;8.20;;;5.53;;
48813;SDS011;34634;44.108;3.074;2023-05-16T00:47:24;4.97;;;4.47;;
48813;SDS011;34634;44.108;3.074;2023-05-16T00:49:50;6.90;;;5.00;;
48813;SDS011;34634;44.108;3.074;2023-05-16T00:52:17;9.65;;;5.55;;
48813;SDS011;34634;44.108;3.074;2023-05-16T00:54:43;10.65;;;5.25;;
48813;SDS011;34634;44.108;3.074;2023-05-16T00:57:09;7.90;;;5.53;;
48813;SDS011;34634;44.108;3.074;2023-05-16T00:59:36;8.77;;;5.78;;
48813;SDS011;34634;44.108;3.074;2023-05-16T01:02:02;10.02;;;5.93;;
48813;SDS011;34634;44.108;3.074;2023-05-16T01:04:28;7.43;;;5.63;;
48813;SDS011;34634;44.108;3.074;2023-05-16T01:06:55;7.38;;;5.60;;
48813;SDS011;34634;44.108;3.074;2023-05-16T01:09:22;6.90;;;5.75;;
48813;SDS011;34634;44.108;3.074;2023-05-16T01:14:24;9.75;;;6.30;;
48813;SDS011;34634;44.108;3.074;2023-05-16T01:21:59;6.53;;;5.53;;
48813;SDS011;34634;44.108;3.074;2023-05-16T01:24:33;6.30;;;5.60;;
48813;SDS011;34634;44.108;3.074;2023-05-16T01:27:01;7.07;;;5.50;;
48813;SDS011;34634;44.108;3.074;2023-05-16T01:29:30;9.05;;;5.95;;
48813;SDS011;34634;44.108;3.074;2023-05-16T01:31:56;12.27;;;6.07;;
48813;SDS011;34634;44.108;3.074;2023-05-16T01:34:23;9.23;;;6.60;;
48813;SDS011;34634;44.108;3.074;2023-05-16T01:36:52;10.13;;;6.45;;
48813;SDS011;34634;44.108;3.074;2023-05-16T01:39:43;12.75;;;6.65;;
48813;SDS011;34634;44.108;3.074;2023-05-16T01:42:13;10.43;;;5.68;;
48813;SDS011;34634;44.108;3.074;2023-05-16T01:44:42;8.37;;;6.27;;
48813;SDS011;34634;44.108;3.074;2023-05-16T01:47:11;7.28;;;6.03;;
48813;SDS011;34634;44.108;3.074;2023-05-16T01:49:52;9.40;;;5.68;;
48813;SDS011;34634;44.108;3.074;2023-05-16T01:52:43;7.07;;;5.60;;
48813;SDS011;34634;44.108;3.074;2023-05-16T01:55:12;7.32;;;5.65;;
48813;SDS011;34634;44.108;3.074;2023-05-16T01:57:41;7.13;;;5.88;;
48813;SDS011;34634;44.108;3.074;2023-05-16T02:00:08;7.10;;;5.50;;
48813;SDS011;34634;44.108;3.074;2023-05-16T02:02:34;10.77;;;6.15;;
48813;SDS011;34634;44.108;3.074;2023-05-16T02:05:01;7.75;;;6.13;;
48813;SDS011;34634;44.108;3.074;2023-05-16T02:07:27;7.50;;;5.78;;
48813;SDS011;34634;44.108;3.074;2023-05-16T02:09:53;10.45;;;6.38;;
48813;SDS011;34634;44.108;3.074;2023-05-16T02:12:19;11.70;;;6.10;;
48813;SDS011;34634;44.108;3.074;2023-05-16T02:14:46;8.63;;;6.53;;
48813;SDS011;34634;44.108;3.074;2023-05-16T02:17:12;12.05;;;6.43;;
48813;SDS011;34634;44.108;3.074;2023-05-16T02:19:39;9.00;;;6.60;;
48813;SDS011;34634;44.108;3.074;2023-05-16T02:22:05;8.88;;;6.45;;
48813;SDS011;34634;44.108;3.074;2023-05-16T02:24:31;8.05;;;6.38;;
48813;SDS011;34634;44.108;3.074;2023-05-16T02:26:58;10.07;;;6.82;;
48813;SDS011;34634;44.108;3.074;2023-05-16T02:29:24;7.55;;;5.78;;
48813;SDS011;34634;44.108;3.074;2023-05-16T02:31:50;8.27;;;7.10;;
48813;SDS011;34634;44.108;3.074;2023-05-16T02:34:17;7.97;;;6.30;;
48813;SDS011;34634;44.108;3.074;2023-05-16T02:36:43;10.93;;;6.40;;
48813;SDS011;34634;44.108;3.074;2023-05-16T02:39:09;10.60;;;6.38;;
48813;SDS011;34634;44.108;3.074;2023-05-16T02:41:36;8.48;;;6.47;;
48813;SDS011;34634;44.108;3.074;2023-05-16T02:44:02;8.88;;;6.25;;
48813;SDS011;34634;44.108;3.074;2023-05-16T02:46:29;8.98;;;6.55;;
48813;SDS011;34634;44.108;3.074;2023-05-16T02:48:56;8.23;;;6.63;;
48813;SDS011;34634;44.108;3.074;2023-05-16T02:51:24;9.10;;;6.55;;
48813;SDS011;34634;44.108;3.074;2023-05-16T02:53:50;7.82;;;6.38;;
48813;SDS011;34634;44.108;3.074;2023-05-16T02:56:17;11.00;;;6.68;;
48813;SDS011;34634;44.108;3.074;2023-05-16T02:58:45;8.27;;;6.57;;
48813;SDS011;34634;44.108;3.074;2023-05-16T03:01:12;9.40;;;6.70;;
48813;SDS011;34634;44.108;3.074;2023-05-16T03:03:39;10.00;;;6.60;;
48813;SDS011;34634;44.108;3.074;2023-05-16T03:06:05;10.77;;;7.32;;
48813;SDS011;34634;44.108;3.074;2023-05-16T03:08:32;11.20;;;7.03;;
48813;SDS011;34634;44.108;3.074;2023-05-16T03:10:59;14.65;;;7.20;;
48813;SDS011;34634;44.108;3.074;2023-05-16T03:13:25;12.43;;;7.15;;
48813;SDS011;34634;44.108;3.074;2023-05-16T03:15:53;12.55;;;7.28;;
48813;SDS011;34634;44.108;3.074;2023-05-16T03:18:20;10.63;;;7.70;;
48813;SDS011;34634;44.108;3.074;2023-05-16T03:20:46;10.93;;;7.03;;
48813;SDS011;34634;44.108;3.074;2023-05-16T03:23:12;12.43;;;6.95;;
48813;SDS011;34634;44.108;3.074;2023-05-16T03:25:39;11.43;;;7.10;;
48813;SDS011;34634;44.108;3.074;2023-05-16T03:28:07;9.90;;;7.47;;
48813;SDS011;34634;44.108;3.074;2023-05-16T03:30:34;10.10;;;7.32;;
48813;SDS011;34634;44.108;3.074;2023-05-16T03:33:00;11.75;;;8.02;;
48813;SDS011;34634;44.108;3.074;2023-05-16T03:35:28;12.02;;;7.47;;
48813;SDS011;34634;44.108;3.074;2023-05-16T03:37:54;10.85;;;7.60;;
48813;SDS011;34634;44.108;3.074;2023-05-16T03:40:21;15.52;;;7.13;;
48813;SDS011;34634;44.108;3.074;2023-05-16T03:42:47;11.93;;;7.57;;
48813;SDS011;34634;44.108;3.074;2023-05-16T03:45:14;9.68;;;6.85;;
48813;SDS011;34634;44.108;3.074;2023-05-16T03:47:40;11.10;;;7.95;;
48813;SDS011;34634;44.108;3.074;2023-05-16T03:50:07;11.40;;;7.35;;
48813;SDS011;34634;44.108;3.074;2023-05-16T03:52:34;14.32;;;7.53;;
48813;SDS011;34634;44.108;3.074;2023-05-16T03:55:00;9.05;;;7.80;;
48813;SDS011;34634;44.108;3.074;2023-05-16T03:57:32;12.48;;;7.63;;
48813;SDS011;34634;44.108;3.074;2023-05-16T03:59:58;9.60;;;7.77;;
48813;SDS011;34634;44.108;3.074;2023-05-16T04:02:25;12.27;;;7.50;;
48813;SDS011;34634;44.108;3.074;2023-05-16T04:04:51;11.68;;;7.07;;
48813;SDS011;34634;44.108;3.074;2023-05-16T04:07:17;10.35;;;7.78;;
48813;SDS011;34634;44.108;3.074;2023-05-16T04:09:44;11.40;;;7.53;;
48813;SDS011;34634;44.108;3.074;2023-05-16T04:12:10;12.68;;;7.05;;
48813;SDS011;34634;44.108;3.074;2023-05-16T04:14:36;12.93;;;7.38;;
48813;SDS011;34634;44.108;3.074;2023-05-16T04:17:03;16.75;;;7.97;;
48813;SDS011;34634;44.108;3.074;2023-05-16T04:19:29;12.48;;;8.00;;
48813;SDS011;34634;44.108;3.074;2023-05-16T04:21:55;12.27;;;8.18;;
48813;SDS011;34634;44.108;3.074;2023-05-16T04:24:22;11.95;;;7.32;;
48813;SDS011;34634;44.108;3.074;2023-05-16T04:26:50;11.85;;;8.52;;
48813;SDS011;34634;44.108;3.074;2023-05-16T04:29:17;10.60;;;7.75;;
48813;SDS011;34634;44.108;3.074;2023-05-16T04:31:43;12.55;;;7.32;;
48813;SDS011;34634;44.108;3.074;2023-05-16T04:34:10;10.80;;;7.65;;
48813;SDS011;34634;44.108;3.074;2023-05-16T04:36:37;10.98;;;8.07;;
48813;SDS011;34634;44.108;3.074;2023-05-16T04:39:04;8.77;;;7.13;;
48813;SDS011;34634;44.108;3.074;2023-05-16T04:41:31;13.05;;;7.80;;
48813;SDS011;34634;44.108;3.074;2023-05-16T04:44:02;10.52;;;8.15;;
48813;SDS011;34634;44.108;3.074;2023-05-16T04:46:29;10.57;;;7.50;;
48813;SDS011;34634;44.108;3.074;2023-05-16T04:48:55;10.63;;;7.85;;
48813;SDS011;34634;44.108;3.074;2023-05-16T04:51:22;12.55;;;7.30;;
48813;SDS011;34634;44.108;3.074;2023-05-16T04:53:48;11.15;;;7.65;;
48813;SDS011;34634;44.108;3.074;2023-05-16T04:56:14;13.98;;;7.00;;
48813;SDS011;34634;44.108;3.074;2023-05-16T04:58:41;14.90;;;7.30;;
48813;SDS011;34634;44.108;3.074;2023-05-16T05:01:07;8.85;;;6.88;;
48813;SDS011;34634;44.108;3.074;2023-05-16T05:03:33;10.05;;;7.00;;
48813;SDS011;34634;44.108;3.074;2023-05-16T05:06:00;14.02;;;7.20;;
48813;SDS011;34634;44.108;3.074;2023-05-16T05:08:26;9.68;;;7.20;;
48813;SDS011;34634;44.108;3.074;2023-05-16T05:10:54;11.45;;;7.43;;
48813;SDS011;34634;44.108;3.074;2023-05-16T05:13:20;10.07;;;7.28;;
48813;SDS011;34634;44.108;3.074;2023-05-16T05:15:48;9.40;;;7.25;;
48813;SDS011;34634;44.108;3.074;2023-05-16T05:18:16;8.38;;;7.00;;
48813;SDS011;34634;44.108;3.074;2023-05-16T05:20:43;10.25;;;7.07;;
48813;SDS011;34634;44.108;3.074;2023-05-16T05:23:09;12.30;;;7.45;;
48813;SDS011;34634;44.108;3.074;2023-05-16T05:25:35;12.88;;;7.65;;
48813;SDS011;34634;44.108;3.074;2023-05-16T05:28:02;11.77;;;7.60;;
48813;SDS011;34634;44.108;3.074;2023-05-16T05:30:28;10.00;;;7.10;;
48813;SDS011;34634;44.108;3.074;2023-05-16T05:32:55;14.32;;;7.70;;
48813;SDS011;34634;44.108;3.074;2023-05-16T05:35:21;9.88;;;6.47;;
48813;SDS011;34634;44.108;3.074;2023-05-16T05:37:48;9.18;;;7.40;;
48813;SDS011;34634;44.108;3.074;2023-05-16T05:40:14;10.82;;;7.38;;
48813;SDS011;34634;44.108;3.074;2023-05-16T05:42:40;10.00;;;6.40;;
48813;SDS011;34634;44.108;3.074;2023-05-16T05:45:07;14.48;;;7.15;;
48813;SDS011;34634;44.108;3.074;2023-05-16T05:47:33;16.73;;;7.07;;
48813;SDS011;34634;44.108;3.074;2023-05-16T05:49:59;12.63;;;7.15;;
48813;SDS011;34634;44.108;3.074;2023-05-16T05:52:27;9.82;;;7.22;;
48813;SDS011;34634;44.108;3.074;2023-05-16T05:54:53;16.42;;;7.32;;
48813;SDS011;34634;44.108;3.074;2023-05-16T05:57:19;13.52;;;7.72;;
48813;SDS011;34634;44.108;3.074;2023-05-16T05:59:46;15.95;;;7.30;;
48813;SDS011;34634;44.108;3.074;2023-05-16T06:02:12;16.13;;;7.40;;
48813;SDS011;34634;44.108;3.074;2023-05-16T06:04:39;11.27;;;6.85;;
48813;SDS011;34634;44.108;3.074;2023-05-16T06:07:07;17.27;;;7.25;;
48813;SDS011;34634;44.108;3.074;2023-05-16T06:09:33;22.95;;;7.40;;
48813;SDS011;34634;44.108;3.074;2023-05-16T06:11:59;11.68;;;6.78;;
48813;SDS011;34634;44.108;3.074;2023-05-16T06:14:26;23.35;;;7.55;;
48813;SDS011;34634;44.108;3.074;2023-05-16T06:16:52;13.50;;;6.68;;
48813;SDS011;34634;44.108;3.074;2023-05-16T06:19:18;19.80;;;7.47;;
48813;SDS011;34634;44.108;3.074;2023-05-16T06:21:45;12.00;;;6.88;;
48813;SDS011;34634;44.108;3.074;2023-05-16T06:24:11;13.20;;;7.15;;
48813;SDS011;34634;44.108;3.074;2023-05-16T06:26:37;13.60;;;6.68;;
48813;SDS011;34634;44.108;3.074;2023-05-16T06:29:04;23.08;;;7.60;;
48813;SDS011;34634;44.108;3.074;2023-05-16T06:31:30;16.35;;;7.25;;
48813;SDS011;34634;44.108;3.074;2023-05-16T06:33:56;13.65;;;6.80;;
48813;SDS011;34634;44.108;3.074;2023-05-16T06:36:23;10.10;;;6.10;;
48813;SDS011;34634;44.108;3.074;2023-05-16T06:38:49;11.10;;;6.32;;
48813;SDS011;34634;44.108;3.074;2023-05-16T06:41:15;13.55;;;6.50;;
48813;SDS011;34634;44.108;3.074;2023-05-16T06:43:42;9.98;;;5.75;;
48813;SDS011;34634;44.108;3.074;2023-05-16T06:46:08;7.32;;;6.13;;
48813;SDS011;34634;44.108;3.074;2023-05-16T06:48:34;7.72;;;5.88;;
48813;SDS011;34634;44.108;3.074;2023-05-16T06:51:01;11.13;;;6.90;;
48813;SDS011;34634;44.108;3.074;2023-05-16T06:53:27;9.32;;;6.32;;
48813;SDS011;34634;44.108;3.074;2023-05-16T06:55:54;10.40;;;6.53;;
48813;SDS011;34634;44.108;3.074;2023-05-16T06:58:20;18.58;;;6.18;;
48813;SDS011;34634;44.108;3.074;2023-05-16T07:00:48;12.80;;;5.65;;
48813;SDS011;34634;44.108;3.074;2023-05-16T07:03:14;12.63;;;5.80;;
48813;SDS011;34634;44.108;3.074;2023-05-16T07:05:40;5.60;;;4.60;;
48813;SDS011;34634;44.108;3.074;2023-05-16T07:08:10;5.72;;;3.78;;
48813;SDS011;34634;44.108;3.074;2023-05-16T07:10:39;4.80;;;3.33;;
48813;SDS011;34634;44.108;3.074;2023-05-16T07:13:06;3.65;;;3.00;;
48813;SDS011;34634;44.108;3.074;2023-05-16T07:15:32;5.45;;;3.38;;
48813;SDS011;34634;44.108;3.074;2023-05-16T07:17:58;4.15;;;2.65;;
48813;SDS011;34634;44.108;3.074;2023-05-16T07:20:25;3.88;;;2.60;;
48813;SDS011;34634;44.108;3.074;2023-05-16T07:22:51;2.95;;;2.47;;
48813;SDS011;34634;44.108;3.074;2023-05-16T07:25:17;2.47;;;2.20;;
48813;SDS011;34634;44.108;3.074;2023-05-16T07:27:44;3.42;;;2.47;;
48813;SDS011;34634;44.108;3.074;2023-05-16T07:30:10;2.85;;;2.20;;
48813;SDS011;34634;44.108;3.074;2023-05-16T07:32:37;1.95;;;1.42;;
48813;SDS011;34634;44.108;3.074;2023-05-16T07:35:04;2.42;;;1.40;;
48813;SDS011;34634;44.108;3.074;2023-05-16T07:37:30;3.08;;;1.35;;
48813;SDS011;34634;44.108;3.074;2023-05-16T07:39:56;2.15;;;1.38;;
48813;SDS011;34634;44.108;3.074;2023-05-16T07:42:23;2.60;;;1.15;;
48813;SDS011;34634;44.108;3.074;2023-05-16T07:44:49;1.55;;;1.23;;
48813;SDS011;34634;44.108;3.074;2023-05-16T07:47:16;6.15;;;1.67;;
48813;SDS011;34634;44.108;3.074;2023-05-16T07:49:42;1.67;;;1.20;;
48813;SDS011;34634;44.108;3.074;2023-05-16T07:52:08;1.90;;;1.60;;
48813;SDS011;34634;44.108;3.074;2023-05-16T07:54:35;2.10;;;1.40;;
48813;SDS011;34634;44.108;3.074;2023-05-16T07:57:01;1.80;;;1.35;;
48813;SDS011;34634;44.108;3.074;2023-05-16T07:59:28;2.25;;;1.30;;
48813;SDS011;34634;44.108;3.074;2023-05-16T08:01:55;2.13;;;1.50;;
48813;SDS011;34634;44.108;3.074;2023-05-16T08:04:21;2.53;;;1.40;;
48813;SDS011;34634;44.108;3.074;2023-05-16T08:06:48;1.60;;;1.25;;
48813;SDS011;34634;44.108;3.074;2023-05-16T08:09:14;2.08;;;1.05;;
48813;SDS011;34634;44.108;3.074;2023-05-16T08:11:41;1.40;;;1.08;;
48813;SDS011;34634;44.108;3.074;2023-05-16T08:14:09;2.88;;;1.10;;
48813;SDS011;34634;44.108;3.074;2023-05-16T08:16:36;2.58;;;1.10;;
48813;SDS011;34634;44.108;3.074;2023-05-16T08:19:02;1.30;;;1.20;;
48813;SDS011;34634;44.108;3.074;2023-05-16T08:21:28;2.25;;;1.48;;
48813;SDS011;34634;44.108;3.074;2023-05-16T08:23:56;2.42;;;1.33;;
48813;SDS011;34634;44.108;3.074;2023-05-16T08:26:22;1.45;;;1.20;;
48813;SDS011;34634;44.108;3.074;2023-05-16T08:28:49;2.67;;;1.00;;
48813;SDS011;34634;44.108;3.074;2023-05-16T08:31:15;0.80;;;0.80;;
48813;SDS011;34634;44.108;3.074;2023-05-16T08:33:42;1.58;;;0.98;;
48813;SDS011;34634;44.108;3.074;2023-05-16T08:36:08;1.08;;;1.00;;
48813;SDS011;34634;44.108;3.074;2023-05-16T08:38:35;2.88;;;0.80;;
48813;SDS011;34634;44.108;3.074;2023-05-16T08:41:01;2.85;;;0.88;;
48813;SDS011;34634;44.108;3.074;2023-05-16T08:43:27;1.92;;;0.80;;
48813;SDS011;34634;44.108;3.074;2023-05-16T08:45:54;3.85;;;0.90;;
48813;SDS011;34634;44.108;3.074;2023-05-16T08:48:21;1.20;;;0.85;;
48813;SDS011;34634;44.108;3.074;2023-05-16T08:50:48;0.93;;;0.82;;
48813;SDS011;34634;44.108;3.074;2023-05-16T08:53:16;3.13;;;0.77;;
48813;SDS011;34634;44.108;3.074;2023-05-16T08:55:46;2.88;;;0.98;;
48813;SDS011;34634;44.108;3.074;2023-05-16T08:58:13;1.00;;;0.80;;
48813;SDS011;34634;44.108;3.074;2023-05-16T09:00:39;1.33;;;0.90;;
48813;SDS011;34634;44.108;3.074;2023-05-16T09:03:06;2.88;;;0.90;;
48813;SDS011;34634;44.108;3.074;2023-05-16T09:05:33;2.33;;;0.95;;
48813;SDS011;34634;44.108;3.074;2023-05-16T09:07:59;1.80;;;1.00;;
48813;SDS011;34634;44.108;3.074;2023-05-16T09:10:26;0.95;;;0.75;;
48813;SDS011;34634;44.108;3.074;2023-05-16T09:12:52;1.33;;;0.90;;
48813;SDS011;34634;44.108;3.074;2023-05-16T09:15:18;0.82;;;0.80;;
48813;SDS011;34634;44.108;3.074;2023-05-16T09:17:48;1.23;;;0.90;;
48813;SDS011;34634;44.108;3.074;2023-05-16T09:20:15;0.80;;;0.70;;
48813;SDS011;34634;44.108;3.074;2023-05-16T09:22:51;1.52;;;1.00;;
48813;SDS011;34634;44.108;3.074;2023-05-16T09:25:18;4.07;;;1.05;;
48813;SDS011;34634;44.108;3.074;2023-05-16T09:27:45;0.93;;;0.75;;
48813;SDS011;34634;44.108;3.074;2023-05-16T09:30:15;1.05;;;1.00;;
48813;SDS011;34634;44.108;3.074;2023-05-16T09:32:42;2.20;;;1.02;;
48813;SDS011;34634;44.108;3.074;2023-05-16T09:35:10;1.73;;;0.80;;
48813;SDS011;34634;44.108;3.074;2023-05-16T09:37:43;1.10;;;1.00;;
48813;SDS011;34634;44.108;3.074;2023-05-16T09:40:11;0.70;;;0.70;;
48813;SDS011;34634;44.108;3.074;2023-05-16T09:42:37;1.83;;;1.10;;
48813;SDS011;34634;44.108;3.074;2023-05-16T09:45:04;0.82;;;0.82;;
48813;SDS011;34634;44.108;3.074;2023-05-16T09:47:30;1.05;;;0.95;;
48813;SDS011;34634;44.108;3.074;2023-05-16T09:49:56;1.20;;;1.10;;
48813;SDS011;34634;44.108;3.074;2023-05-16T09:52:26;1.08;;;0.80;;
48813;SDS011;34634;44.108;3.074;2023-05-16T09:54:52;3.08;;;0.70;;
48813;SDS011;34634;44.108;3.074;2023-05-16T09:57:19;2.35;;;1.30;;
48813;SDS011;34634;44.108;3.074;2023-05-16T09:59:46;2.00;;;0.80;;
48813;SDS011;34634;44.108;3.074;2023-05-16T10:02:12;1.25;;;0.82;;
48813;SDS011;34634;44.108;3.074;2023-05-16T10:04:39;1.20;;;1.10;;
48813;SDS011;34634;44.108;3.074;2023-05-16T10:07:05;1.90;;;1.42;;
48813;SDS011;34634;44.108;3.074;2023-05-16T10:09:34;4.18;;;1.10;;
48813;SDS011;34634;44.108;3.074;2023-05-16T10:12:02;1.10;;;0.82;;
48813;SDS011;34634;44.108;3.074;2023-05-16T10:14:34;2.35;;;0.80;;
48813;SDS011;34634;44.108;3.074;2023-05-16T10:17:05;1.10;;;0.90;;
48813;SDS011;34634;44.108;3.074;2023-05-16T10:19:36;0.88;;;0.70;;
48813;SDS011;34634;44.108;3.074;2023-05-16T10:22:04;3.45;;;0.85;;
48813;SDS011;34634;44.108;3.074;2023-05-16T10:24:33;0.68;;;0.68;;
48813;SDS011;34634;44.108;3.074;2023-05-16T10:27:01;0.77;;;0.70;;
48813;SDS011;34634;44.108;3.074;2023-05-16T10:29:28;0.50;;;0.50;;
48813;SDS011;34634;44.108;3.074;2023-05-16T10:31:55;2.45;;;0.70;;
48813;SDS011;34634;44.108;3.074;2023-05-16T10:34:22;2.15;;;0.68;;
48813;SDS011;34634;44.108;3.074;2023-05-16T10:36:48;0.60;;;0.60;;
48813;SDS011;34634;44.108;3.074;2023-05-16T10:39:14;0.90;;;0.77;;
48813;SDS011;34634;44.108;3.074;2023-05-16T10:41:41;4.38;;;1.13;;
48813;SDS011;34634;44.108;3.074;2023-05-16T10:44:12;2.58;;;1.00;;
48813;SDS011;34634;44.108;3.074;2023-05-16T10:46:40;1.70;;;1.08;;
48813;SDS011;34634;44.108;3.074;2023-05-16T10:49:19;1.17;;;1.00;;
48813;SDS011;34634;44.108;3.074;2023-05-16T10:51:47;0.73;;;0.73;;
48813;SDS011;34634;44.108;3.074;2023-05-16T10:54:14;0.82;;;0.80;;
48813;SDS011;34634;44.108;3.074;2023-05-16T10:56:42;1.27;;;0.90;;
48813;SDS011;34634;44.108;3.074;2023-05-16T10:59:21;1.75;;;0.60;;
48813;SDS011;34634;44.108;3.074;2023-05-16T11:01:51;0.70;;;0.70;;
48813;SDS011;34634;44.108;3.074;2023-05-16T11:04:17;0.75;;;0.75;;
48813;SDS011;34634;44.108;3.074;2023-05-16T11:06:45;0.95;;;0.80;;
48813;SDS011;34634;44.108;3.074;2023-05-16T11:11:59;1.95;;;1.08;;
48813;SDS011;34634;44.108;3.074;2023-05-16T11:17:05;2.80;;;1.00;;
48813;SDS011;34634;44.108;3.074;2023-05-16T11:24:34;3.10;;;1.00;;
48813;SDS011;34634;44.108;3.074;2023-05-16T11:27:01;5.55;;;1.05;;
48813;SDS011;34634;44.108;3.074;2023-05-16T11:29:31;3.28;;;0.90;;
48813;SDS011;34634;44.108;3.074;2023-05-16T11:31:59;3.60;;;1.00;;
48813;SDS011;34634;44.108;3.074;2023-05-16T11:34:25;1.20;;;1.10;;
48813;SDS011;34634;44.108;3.074;2023-05-16T11:36:52;1.58;;;1.17;;
48813;SDS011;34634;44.108;3.074;2023-05-16T11:39:19;1.00;;;1.00;;
48813;SDS011;34634;44.108;3.074;2023-05-16T11:41:45;2.40;;;0.90;;
48813;SDS011;34634;44.108;3.074;2023-05-16T11:44:12;1.35;;;1.00;;
48813;SDS011;34634;44.108;3.074;2023-05-16T11:46:38;4.10;;;1.20;;
48813;SDS011;34634;44.108;3.074;2023-05-16T11:49:05;1.52;;;1.13;;
48813;SDS011;34634;44.108;3.074;2023-05-16T11:51:36;3.72;;;1.40;;
48813;SDS011;34634;44.108;3.074;2023-05-16T11:54:02;3.83;;;1.30;;
48813;SDS011;34634;44.108;3.074;2023-05-16T11:56:29;2.13;;;1.20;;
48813;SDS011;34634;44.108;3.074;2023-05-16T11:58:58;2.33;;;1.20;;
48813;SDS011;34634;44.108;3.074;2023-05-16T12:01:30;3.72;;;1.10;;
48813;SDS011;34634;44.108;3.074;2023-05-16T12:03:57;4.15;;;1.00;;
48813;SDS011;34634;44.108;3.074;2023-05-16T12:06:23;1.58;;;1.45;;
48813;SDS011;34634;44.108;3.074;2023-05-16T12:08:50;3.08;;;1.42;;
48813;SDS011;34634;44.108;3.074;2023-05-16T12:11:17;3.15;;;1.40;;
48813;SDS011;34634;44.108;3.074;2023-05-16T12:13:45;1.15;;;1.05;;
48813;SDS011;34634;44.108;3.074;2023-05-16T12:16:12;1.50;;;1.38;;
48813;SDS011;34634;44.108;3.074;2023-05-16T12:18:38;1.48;;;1.38;;
48813;SDS011;34634;44.108;3.074;2023-05-16T12:21:05;1.38;;;1.27;;
48813;SDS011;34634;44.108;3.074;2023-05-16T12:23:31;3.10;;;1.42;;
48813;SDS011;34634;44.108;3.074;2023-05-16T12:25:58;1.52;;;1.40;;
48813;SDS011;34634;44.108;3.074;2023-05-16T12:28:32;3.72;;;1.50;;
48813;SDS011;34634;44.108;3.074;2023-05-16T12:30:59;2.17;;;1.77;;
48813;SDS011;34634;44.108;3.074;2023-05-16T12:33:26;2.08;;;1.88;;
48813;SDS011;34634;44.108;3.074;2023-05-16T12:35:52;4.63;;;1.60;;
48813;SDS011;34634;44.108;3.074;2023-05-16T12:38:19;1.40;;;1.30;;
48813;SDS011;34634;44.108;3.074;2023-05-16T12:40:46;2.40;;;2.03;;
48813;SDS011;34634;44.108;3.074;2023-05-16T12:43:16;2.97;;;1.83;;
48813;SDS011;34634;44.108;3.074;2023-05-16T12:48:19;2.60;;;1.90;;
48813;SDS011;34634;44.108;3.074;2023-05-16T12:50:46;1.90;;;1.70;;
48813;SDS011;34634;44.108;3.074;2023-05-16T12:53:13;3.22;;;1.70;;
48813;SDS011;34634;44.108;3.074;2023-05-16T12:55:40;2.53;;;1.75;;
48813;SDS011;34634;44.108;3.074;2023-05-16T12:58:07;1.67;;;1.58;;
48813;SDS011;34634;44.108;3.074;2023-05-16T13:00:34;1.90;;;1.60;;
48813;SDS011;34634;44.108;3.074;2023-05-16T13:03:02;1.77;;;1.67;;
48813;SDS011;34634;44.108;3.074;2023-05-16T13:05:28;1.73;;;1.58;;
48813;SDS011;34634;44.108;3.074;2023-05-16T13:07:55;2.53;;;1.55;;
48813;SDS011;34634;44.108;3.074;2023-05-16T13:10:21;2.45;;;1.65;;
48813;SDS011;34634;44.108;3.074;2023-05-16T13:12:50;1.67;;;1.50;;
48813;SDS011;34634;44.108;3.074;2023-05-16T13:15:16;2.67;;;1.98;;
48813;SDS011;34634;44.108;3.074;2023-05-16T13:17:42;2.28;;;1.67;;
48813;SDS011;34634;44.108;3.074;2023-05-16T13:20:09;4.43;;;1.67;;
48813;SDS011;34634;44.108;3.074;2023-05-16T13:22:39;1.93;;;1.50;;
48813;SDS011;34634;44.108;3.074;2023-05-16T13:25:05;1.35;;;1.25;;
48813;SDS011;34634;44.108;3.074;2023-05-16T13:27:33;1.60;;;1.50;;
48813;SDS011;34634;44.108;3.074;2023-05-16T13:30:00;1.73;;;1.50;;
48813;SDS011;34634;44.108;3.074;2023-05-16T13:32:27;1.63;;;1.50;;
48813;SDS011;34634;44.108;3.074;2023-05-16T13:34:54;5.50;;;1.40;;
48813;SDS011;34634;44.108;3.074;2023-05-16T13:37:20;4.38;;;1.50;;
48813;SDS011;34634;44.108;3.074;2023-05-16T13:39:48;1.42;;;1.30;;
48813;SDS011;34634;44.108;3.074;2023-05-16T13:42:15;1.40;;;1.30;;
48813;SDS011;34634;44.108;3.074;2023-05-16T13:44:41;1.27;;;1.15;;
48813;SDS011;34634;44.108;3.074;2023-05-16T13:47:09;1.67;;;1.35;;
48813;SDS011;34634;44.108;3.074;2023-05-16T13:49:35;1.42;;;1.20;;
48813;SDS011;34634;44.108;3.074;2023-05-16T13:52:03;1.50;;;1.40;;
48813;SDS011;34634;44.108;3.074;2023-05-16T13:54:29;1.65;;;1.40;;
48813;SDS011;34634;44.108;3.074;2023-05-16T13:56:56;1.60;;;1.23;;
48813;SDS011;34634;44.108;3.074;2023-05-16T13:59:22;1.63;;;1.35;;
48813;SDS011;34634;44.108;3.074;2023-05-16T14:01:49;2.60;;;1.00;;
48813;SDS011;34634;44.108;3.074;2023-05-16T14:04:15;1.20;;;1.10;;
48813;SDS011;34634;44.108;3.074;2023-05-16T14:06:41;1.23;;;1.10;;
48813;SDS011;34634;44.108;3.074;2023-05-16T14:09:08;2.58;;;1.00;;
48813;SDS011;34634;44.108;3.074;2023-05-16T14:11:34;5.07;;;1.20;;
48813;SDS011;34634;44.108;3.074;2023-05-16T14:14:01;3.75;;;1.08;;
48813;SDS011;34634;44.108;3.074;2023-05-16T14:16:27;1.35;;;1.00;;
48813;SDS011;34634;44.108;3.074;2023-05-16T14:18:55;1.05;;;0.95;;
48813;SDS011;34634;44.108;3.074;2023-05-16T14:21:21;2.85;;;0.90;;
48813;SDS011;34634;44.108;3.074;2023-05-16T14:23:48;1.35;;;0.88;;
48813;SDS011;34634;44.108;3.074;2023-05-16T14:26:14;3.53;;;0.82;;
48813;SDS011;34634;44.108;3.074;2023-05-16T14:28:40;1.20;;;0.80;;
48813;SDS011;34634;44.108;3.074;2023-05-16T14:31:07;1.90;;;0.85;;
48813;SDS011;34634;44.108;3.074;2023-05-16T14:33:33;2.05;;;0.70;;
48813;SDS011;34634;44.108;3.074;2023-05-16T14:35:59;1.40;;;0.75;;
48813;SDS011;34634;44.108;3.074;2023-05-16T14:38:26;1.40;;;0.90;;
48813;SDS011;34634;44.108;3.074;2023-05-16T14:40:52;3.53;;;0.90;;
48813;SDS011;34634;44.108;3.074;2023-05-16T14:43:19;4.32;;;0.80;;
48813;SDS011;34634;44.108;3.074;2023-05-16T14:45:45;0.80;;;0.80;;
48813;SDS011;34634;44.108;3.074;2023-05-16T14:48:12;0.70;;;0.70;;
48813;SDS011;34634;44.108;3.074;2023-05-16T14:50:38;1.95;;;0.60;;
48813;SDS011;34634;44.108;3.074;2023-05-16T14:53:04;1.15;;;0.70;;
48813;SDS011;34634;44.108;3.074;2023-05-16T14:55:31;1.52;;;0.70;;
48813;SDS011;34634;44.108;3.074;2023-05-16T14:57:57;1.02;;;0.85;;
48813;SDS011;34634;44.108;3.074;2023-05-16T15:00:23;1.00;;;0.60;;
48813;SDS011;34634;44.108;3.074;2023-05-16T15:02:50;1.15;;;0.82;;